Terminal Aerodrome Forecast
Issued by NWS

Home | Current Version | Previous Version | Text Only | Print | Product List | Glossary On
Versions: 1 2 3 4 5 6 7 8 9 10 11 12 13 14 15 16 17
000
FTUS41 KBGM 201156 CCA
TAFRME
TAF COR
KRME 201156Z 2012/2112 30010KT 5SM -SN OVC030
      TEMPO 2013/2016 27012G20KT 1SM -SHSN OVC012
     FM201600 27013G19KT P6SM BKN040
     FM202100 25009KT 4SM -SN OVC025
     FM210000 VRB04KT P6SM SCT040
     FM210800 12004KT P6SM FEW050 WS020/24038KT=

USA.gov is the U.S. government's official web portal to all federal, state and local government web resources and services.